PWSweather.com
Personal Weather Stations
Station Observations
BULSHOEK
ClanwilliamZA

ClanwilliamZA

Lat: -32.003, Lon: 18.782

Elevation: 213

Station Type: Davis Vantage Pro

High Low Average
Temperature 64.4°F18.0°C 47.2°F8.4°C 54.4°F12.4°C
Dew Point 55.0°F12.8°C 44.7°F7.1°C 50.0°F10.0°C
Winds 1.6 mph 2.6 kmh Calm Calm Calm SWCalm SW
Wind Gusts 3.0 mph4.8 kmh -- --
Humidity 91% 69% 85%
Pressure 30.09 in1019.0 mb 30.00 in1015.9 mb -
Precipitation 0.05 in1.3 mm - -
Hour Temp Dew Point Humidity Winds Wind Gusts Pressure Precip Precip Rate Daily Precip Total
12:00 AM 50.2°F10.1°C 46.8°F8.2°C 88% Calm Calm -- 30.03 in1016.9 mb 0.00 in0.0 mm 0.00 in0.0 mm 0.00 in0.0 mm
12:05 AM 50.5°F10.3°C 47.1°F8.4°C 88% 0.4 mph WSW0.6 kmh WSW 2.0 mph3.2 kmh 30.03 in1016.9 mb 0.00 in0.0 mm 0.00 in0.0 mm 0.00 in0.0 mm
12:10 AM 50.5°F10.3°C 47.1°F8.4°C 88% Calm Calm 2.0 mph3.2 kmh 30.03 in1016.9 mb 0.00 in0.0 mm 0.00 in0.0 mm 0.00 in0.0 mm
12:15 AM 50.5°F10.3°C 47.1°F8.4°C 88% Calm Calm -- 30.04 in1017.3 mb 0.00 in0.0 mm 0.00 in0.0 mm 0.00 in0.0 mm
12:20 AM 50.5°F10.3°C 47.1°F8.4°C 88% Calm Calm -- 30.04 in1017.3 mb 0.00 in0.0 mm 0.00 in0.0 mm 0.00 in0.0 mm
12:25 AM 50.6°F10.3°C 47.2°F8.4°C 88% Calm Calm 1.0 mph1.6 kmh 30.04 in1017.3 mb 0.00 in0.0 mm 0.00 in0.0 mm 0.00 in0.0 mm
12:30 AM 50.5°F10.3°C 47.1°F8.4°C 88% Calm Calm 1.0 mph1.6 kmh 30.04 in1017.3 mb 0.00 in0.0 mm 0.00 in0.0 mm 0.00 in0.0 mm
12:35 AM 50.5°F10.3°C 47.1°F8.4°C 88% Calm Calm -- 30.04 in1017.3 mb 0.00 in0.0 mm 0.00 in0.0 mm 0.00 in0.0 mm
12:40 AM 50.5°F10.3°C 47.1°F8.4°C 88% Calm Calm -- 30.04 in1017.3 mb 0.00 in0.0 mm 0.00 in0.0 mm 0.00 in0.0 mm
12:45 AM 50.4°F10.2°C 47.0°F8.3°C 88% Calm Calm -- 30.03 in1016.9 mb 0.00 in0.0 mm 0.00 in0.0 mm 0.00 in0.0 mm
12:50 AM 50.6°F10.3°C 47.2°F8.4°C 88% 0.2 mph WSW0.3 kmh WSW 2.0 mph3.2 kmh 30.03 in1016.9 mb 0.00 in0.0 mm 0.00 in0.0 mm 0.00 in0.0 mm
12:55 AM 50.7°F10.4°C 47.3°F8.5°C 88% Calm Calm 2.0 mph3.2 kmh 30.03 in1016.9 mb 0.00 in0.0 mm 0.00 in0.0 mm 0.00 in0.0 mm
01:00 AM 50.7°F10.4°C 47.3°F8.5°C 88% Calm Calm -- 30.03 in1016.9 mb 0.00 in0.0 mm 0.00 in0.0 mm 0.00 in0.0 mm
01:05 AM 50.6°F10.3°C 47.2°F8.4°C 88% Calm Calm -- 30.03 in1016.9 mb 0.00 in0.0 mm 0.00 in0.0 mm 0.00 in0.0 mm
01:10 AM 50.6°F10.3°C 47.2°F8.4°C 88% Calm Calm -- 30.03 in1016.9 mb 0.00 in0.0 mm 0.00 in0.0 mm 0.00 in0.0 mm
01:15 AM 50.6°F10.3°C 47.2°F8.4°C 88% Calm Calm -- 30.03 in1016.9 mb 0.00 in0.0 mm 0.00 in0.0 mm 0.00 in0.0 mm
01:20 AM 50.5°F10.3°C 47.1°F8.4°C 88% Calm Calm -- 30.03 in1016.9 mb 0.00 in0.0 mm 0.00 in0.0 mm 0.00 in0.0 mm
01:25 AM 50.4°F10.2°C 47.0°F8.3°C 88% Calm Calm -- 30.03 in1016.9 mb 0.00 in0.0 mm 0.00 in0.0 mm 0.00 in0.0 mm
01:30 AM 50.4°F10.2°C 47.0°F8.3°C 88% Calm Calm -- 30.03 in1016.9 mb 0.00 in0.0 mm 0.00 in0.0 mm 0.00 in0.0 mm
01:35 AM 50.4°F10.2°C 47.0°F8.3°C 88% Calm Calm -- 30.03 in1016.9 mb 0.00 in0.0 mm 0.00 in0.0 mm 0.00 in0.0 mm
01:40 AM 50.5°F10.3°C 47.1°F8.4°C 88% Calm Calm -- 30.03 in1016.9 mb 0.00 in0.0 mm 0.00 in0.0 mm 0.00 in0.0 mm
01:45 AM 50.6°F10.3°C 47.2°F8.4°C 88% Calm Calm -- 30.03 in1016.9 mb 0.00 in0.0 mm 0.00 in0.0 mm 0.00 in0.0 mm
01:50 AM 50.6°F10.3°C 47.2°F8.4°C 88% Calm Calm -- 30.03 in1016.9 mb 0.00 in0.0 mm 0.00 in0.0 mm 0.00 in0.0 mm
01:55 AM 50.8°F10.4°C 47.4°F8.6°C 88% Calm Calm -- 30.03 in1016.9 mb 0.00 in0.0 mm 0.00 in0.0 mm 0.00 in0.0 mm
02:00 AM 50.9°F10.5°C 47.5°F8.6°C 88% Calm Calm -- 30.03 in1016.9 mb 0.00 in0.0 mm 0.00 in0.0 mm 0.00 in0.0 mm
02:05 AM 51.0°F10.6°C 47.6°F8.7°C 88% Calm Calm -- 30.03 in1016.9 mb 0.00 in0.0 mm 0.00 in0.0 mm 0.00 in0.0 mm
02:10 AM 51.0°F10.6°C 47.6°F8.7°C 88% Calm Calm -- 30.03 in1016.9 mb 0.00 in0.0 mm 0.00 in0.0 mm 0.00 in0.0 mm
02:15 AM 51.0°F10.6°C 47.6°F8.7°C 88% Calm Calm -- 30.03 in1016.9 mb 0.00 in0.0 mm 0.00 in0.0 mm 0.00 in0.0 mm
02:20 AM 51.0°F10.6°C 47.6°F8.7°C 88% Calm Calm -- 30.03 in1016.9 mb 0.00 in0.0 mm 0.00 in0.0 mm 0.00 in0.0 mm
02:25 AM 51.0°F10.6°C 47.6°F8.7°C 88% Calm Calm -- 30.03 in1016.9 mb 0.00 in0.0 mm 0.00 in0.0 mm 0.00 in0.0 mm
02:30 AM 51.0°F10.6°C 47.9°F8.8°C 89% Calm Calm -- 30.03 in1016.9 mb 0.00 in0.0 mm 0.00 in0.0 mm 0.00 in0.0 mm
02:35 AM 51.0°F10.6°C 47.9°F8.8°C 89% Calm Calm -- 30.03 in1016.9 mb 0.00 in0.0 mm 0.00 in0.0 mm 0.00 in0.0 mm
02:40 AM 51.1°F10.6°C 48.0°F8.9°C 89% Calm Calm -- 30.03 in1016.9 mb 0.00 in0.0 mm 0.00 in0.0 mm 0.00 in0.0 mm
02:45 AM 51.0°F10.6°C 47.9°F8.8°C 89% Calm Calm 1.0 mph1.6 kmh 30.02 in1016.6 mb 0.00 in0.0 mm 0.00 in0.0 mm 0.00 in0.0 mm
02:50 AM 51.1°F10.6°C 48.0°F8.9°C 89% 0.2 mph WSW0.3 kmh WSW 2.0 mph3.2 kmh 30.02 in1016.6 mb 0.00 in0.0 mm 0.00 in0.0 mm 0.00 in0.0 mm
02:55 AM 51.2°F10.7°C 48.1°F8.9°C 89% Calm Calm 2.0 mph3.2 kmh 30.02 in1016.6 mb 0.00 in0.0 mm 0.00 in0.0 mm 0.00 in0.0 mm
03:00 AM 51.1°F10.6°C 48.0°F8.9°C 89% Calm Calm -- 30.01 in1016.3 mb 0.00 in0.0 mm 0.00 in0.0 mm 0.00 in0.0 mm
03:05 AM 50.9°F10.5°C 47.5°F8.6°C 88% Calm Calm -- 30.01 in1016.3 mb 0.00 in0.0 mm 0.00 in0.0 mm 0.00 in0.0 mm
03:10 AM 50.8°F10.4°C 47.4°F8.6°C 88% Calm Calm -- 30.01 in1016.3 mb 0.00 in0.0 mm 0.00 in0.0 mm 0.00 in0.0 mm
03:15 AM 50.7°F10.4°C 47.3°F8.5°C 88% Calm Calm 1.0 mph1.6 kmh 30.01 in1016.3 mb 0.00 in0.0 mm 0.00 in0.0 mm 0.00 in0.0 mm
03:20 AM 50.7°F10.4°C 47.6°F8.7°C 89% Calm Calm 1.0 mph1.6 kmh 30.01 in1016.3 mb 0.00 in0.0 mm 0.00 in0.0 mm 0.00 in0.0 mm
03:25 AM 50.6°F10.3°C 47.5°F8.6°C 89% Calm Calm -- 30.01 in1016.3 mb 0.00 in0.0 mm 0.00 in0.0 mm 0.00 in0.0 mm
03:30 AM 50.5°F10.3°C 47.4°F8.6°C 89% Calm Calm -- 30.01 in1016.3 mb 0.00 in0.0 mm 0.00 in0.0 mm 0.00 in0.0 mm
03:35 AM 50.5°F10.3°C 47.4°F8.6°C 89% Calm Calm -- 30.01 in1016.3 mb 0.00 in0.0 mm 0.00 in0.0 mm 0.00 in0.0 mm
03:40 AM 50.7°F10.4°C 47.6°F8.7°C 89% Calm Calm -- 30.01 in1016.3 mb 0.00 in0.0 mm 0.00 in0.0 mm 0.00 in0.0 mm
03:45 AM 51.2°F10.7°C 48.1°F8.9°C 89% 0.1 mph WSW0.2 kmh WSW 1.0 mph1.6 kmh 30.01 in1016.3 mb 0.00 in0.0 mm 0.00 in0.0 mm 0.00 in0.0 mm
03:50 AM 51.2°F10.7°C 48.1°F8.9°C 89% Calm Calm 1.0 mph1.6 kmh 30.01 in1016.3 mb 0.00 in0.0 mm 0.00 in0.0 mm 0.00 in0.0 mm
03:55 AM 51.2°F10.7°C 48.1°F8.9°C 89% Calm Calm 1.0 mph1.6 kmh 30.01 in1016.3 mb 0.00 in0.0 mm 0.00 in0.0 mm 0.00 in0.0 mm
04:00 AM 51.2°F10.7°C 48.1°F8.9°C 89% Calm Calm -- 30.01 in1016.3 mb 0.00 in0.0 mm 0.00 in0.0 mm 0.00 in0.0 mm
04:10 AM 51.3°F10.7°C 48.2°F9.0°C 89% Calm Calm -- 30.01 in1016.3 mb 0.00 in0.0 mm 0.00 in0.0 mm 0.00 in0.0 mm
04:15 AM 51.2°F10.7°C 48.1°F8.9°C 89% Calm Calm -- 30.01 in1016.3 mb 0.00 in0.0 mm 0.00 in0.0 mm 0.00 in0.0 mm
04:20 AM 51.3°F10.7°C 48.2°F9.0°C 89% Calm Calm 1.0 mph1.6 kmh 30.01 in1016.3 mb 0.00 in0.0 mm 0.00 in0.0 mm 0.00 in0.0 mm
04:25 AM 51.2°F10.7°C 48.1°F8.9°C 89% Calm Calm 1.0 mph1.6 kmh 30.01 in1016.3 mb 0.00 in0.0 mm 0.00 in0.0 mm 0.00 in0.0 mm
04:30 AM 51.2°F10.7°C 48.1°F8.9°C 89% Calm Calm -- 30.01 in1016.3 mb 0.00 in0.0 mm 0.00 in0.0 mm 0.00 in0.0 mm
04:35 AM 51.1°F10.6°C 48.0°F8.9°C 89% Calm Calm -- 30.01 in1016.3 mb 0.00 in0.0 mm 0.00 in0.0 mm 0.00 in0.0 mm
04:40 AM 50.9°F10.5°C 47.8°F8.8°C 89% Calm Calm -- 30.01 in1016.3 mb 0.00 in0.0 mm 0.00 in0.0 mm 0.00 in0.0 mm
04:45 AM 50.7°F10.4°C 47.6°F8.7°C 89% Calm Calm -- 30.01 in1016.3 mb 0.00 in0.0 mm 0.00 in0.0 mm 0.00 in0.0 mm
04:50 AM 50.4°F10.2°C 47.3°F8.5°C 89% Calm Calm -- 30.01 in1016.3 mb 0.00 in0.0 mm 0.00 in0.0 mm 0.00 in0.0 mm
04:55 AM 50.3°F10.2°C 47.2°F8.4°C 89% Calm Calm -- 30.01 in1016.3 mb 0.00 in0.0 mm 0.00 in0.0 mm 0.00 in0.0 mm
05:00 AM 50.5°F10.3°C 47.4°F8.6°C 89% Calm Calm -- 30.00 in1015.9 mb 0.00 in0.0 mm 0.00 in0.0 mm 0.00 in0.0 mm
05:05 AM 50.6°F10.3°C 47.5°F8.6°C 89% Calm Calm -- 30.00 in1015.9 mb 0.00 in0.0 mm 0.00 in0.0 mm 0.00 in0.0 mm
05:10 AM 50.6°F10.3°C 47.5°F8.6°C 89% Calm Calm -- 30.00 in1015.9 mb 0.00 in0.0 mm 0.00 in0.0 mm 0.00 in0.0 mm
05:15 AM 50.6°F10.3°C 47.5°F8.6°C 89% Calm Calm -- 30.01 in1016.3 mb 0.00 in0.0 mm 0.00 in0.0 mm 0.00 in0.0 mm
05:20 AM 50.6°F10.3°C 47.5°F8.6°C 89% Calm Calm -- 30.01 in1016.3 mb 0.00 in0.0 mm 0.00 in0.0 mm 0.00 in0.0 mm
05:25 AM 50.6°F10.3°C 47.5°F8.6°C 89% Calm Calm -- 30.01 in1016.3 mb 0.00 in0.0 mm 0.00 in0.0 mm 0.00 in0.0 mm
05:30 AM 50.6°F10.3°C 47.5°F8.6°C 89% Calm Calm -- 30.00 in1015.9 mb 0.00 in0.0 mm 0.00 in0.0 mm 0.00 in0.0 mm
05:35 AM 50.7°F10.4°C 47.9°F8.8°C 90% Calm Calm -- 30.00 in1015.9 mb 0.00 in0.0 mm 0.00 in0.0 mm 0.00 in0.0 mm
05:40 AM 50.7°F10.4°C 47.9°F8.8°C 90% Calm Calm -- 30.00 in1015.9 mb 0.00 in0.0 mm 0.00 in0.0 mm 0.00 in0.0 mm
05:45 AM 50.9°F10.5°C 48.1°F8.9°C 90% Calm Calm -- 30.01 in1016.3 mb 0.00 in0.0 mm 0.00 in0.0 mm 0.00 in0.0 mm
05:50 AM 50.9°F10.5°C 48.1°F8.9°C 90% Calm Calm -- 30.01 in1016.3 mb 0.00 in0.0 mm 0.00 in0.0 mm 0.00 in0.0 mm
05:55 AM 50.9°F10.5°C 48.1°F8.9°C 90% Calm Calm -- 30.01 in1016.3 mb 0.00 in0.0 mm 0.00 in0.0 mm 0.00 in0.0 mm
06:00 AM 51.0°F10.6°C 48.2°F9.0°C 90% Calm Calm 1.0 mph1.6 kmh 30.01 in1016.3 mb 0.00 in0.0 mm 0.00 in0.0 mm 0.00 in0.0 mm
06:05 AM 51.1°F10.6°C 48.3°F9.1°C 90% 0.7 mph SE1.1 kmh SE 3.0 mph4.8 kmh 30.01 in1016.3 mb 0.00 in0.0 mm 0.00 in0.0 mm 0.00 in0.0 mm
06:10 AM 51.1°F10.6°C 48.3°F9.1°C 90% 0.2 mph SE0.3 kmh SE 3.0 mph4.8 kmh 30.01 in1016.3 mb 0.00 in0.0 mm 0.00 in0.0 mm 0.00 in0.0 mm
06:15 AM 51.0°F10.6°C 48.2°F9.0°C 90% 0.3 mph SE0.5 kmh SE 2.0 mph3.2 kmh 30.01 in1016.3 mb 0.00 in0.0 mm 0.00 in0.0 mm 0.00 in0.0 mm
06:20 AM 50.9°F10.5°C 48.1°F8.9°C 90% Calm Calm 2.0 mph3.2 kmh 30.01 in1016.3 mb 0.00 in0.0 mm 0.00 in0.0 mm 0.00 in0.0 mm
06:25 AM 51.0°F10.6°C 48.2°F9.0°C 90% Calm Calm -- 30.01 in1016.3 mb 0.00 in0.0 mm 0.00 in0.0 mm 0.00 in0.0 mm
06:30 AM 51.2°F10.7°C 48.4°F9.1°C 90% Calm Calm -- 30.01 in1016.3 mb 0.00 in0.0 mm 0.00 in0.0 mm 0.00 in0.0 mm
06:35 AM 51.2°F10.7°C 48.4°F9.1°C 90% Calm Calm 1.0 mph1.6 kmh 30.01 in1016.3 mb 0.00 in0.0 mm 0.00 in0.0 mm 0.00 in0.0 mm
06:40 AM 51.1°F10.6°C 48.3°F9.1°C 90% Calm Calm 1.0 mph1.6 kmh 30.01 in1016.3 mb 0.00 in0.0 mm 0.00 in0.0 mm 0.00 in0.0 mm
06:45 AM 51.1°F10.6°C 48.3°F9.1°C 90% Calm Calm -- 30.02 in1016.6 mb 0.00 in0.0 mm 0.00 in0.0 mm 0.00 in0.0 mm
06:50 AM 51.0°F10.6°C 48.2°F9.0°C 90% Calm Calm -- 30.02 in1016.6 mb 0.00 in0.0 mm 0.00 in0.0 mm 0.00 in0.0 mm
06:55 AM 51.1°F10.6°C 48.3°F9.1°C 90% Calm Calm -- 30.02 in1016.6 mb 0.00 in0.0 mm 0.00 in0.0 mm 0.00 in0.0 mm
07:00 AM 51.3°F10.7°C 48.5°F9.2°C 90% Calm Calm -- 30.02 in1016.6 mb 0.00 in0.0 mm 0.00 in0.0 mm 0.00 in0.0 mm
07:05 AM 51.3°F10.7°C 48.5°F9.2°C 90% Calm Calm -- 30.02 in1016.6 mb 0.00 in0.0 mm 0.00 in0.0 mm 0.00 in0.0 mm
07:10 AM 51.3°F10.7°C 48.5°F9.2°C 90% Calm Calm -- 30.02 in1016.6 mb 0.00 in0.0 mm 0.00 in0.0 mm 0.00 in0.0 mm
07:15 AM 51.4°F10.8°C 48.6°F9.2°C 90% Calm Calm -- 30.03 in1016.9 mb 0.00 in0.0 mm 0.00 in0.0 mm 0.00 in0.0 mm
07:20 AM 51.4°F10.8°C 48.6°F9.2°C 90% Calm Calm -- 30.03 in1016.9 mb 0.00 in0.0 mm 0.00 in0.0 mm 0.00 in0.0 mm
07:25 AM 51.3°F10.7°C 48.5°F9.2°C 90% Calm Calm -- 30.03 in1016.9 mb 0.00 in0.0 mm 0.00 in0.0 mm 0.00 in0.0 mm
07:30 AM 51.3°F10.7°C 48.5°F9.2°C 90% Calm Calm -- 30.03 in1016.9 mb 0.00 in0.0 mm 0.00 in0.0 mm 0.00 in0.0 mm
07:35 AM 51.4°F10.8°C 48.6°F9.2°C 90% Calm Calm -- 30.03 in1016.9 mb 0.00 in0.0 mm 0.00 in0.0 mm 0.00 in0.0 mm
07:40 AM 51.5°F10.8°C 48.7°F9.3°C 90% Calm Calm -- 30.03 in1016.9 mb 0.00 in0.0 mm 0.00 in0.0 mm 0.00 in0.0 mm
07:45 AM 51.7°F10.9°C 48.9°F9.4°C 90% Calm Calm -- 30.04 in1017.3 mb 0.00 in0.0 mm 0.00 in0.0 mm 0.00 in0.0 mm
07:50 AM 51.7°F10.9°C 48.9°F9.4°C 90% Calm Calm -- 30.04 in1017.3 mb 0.00 in0.0 mm 0.00 in0.0 mm 0.00 in0.0 mm
07:55 AM 51.8°F11.0°C 49.0°F9.4°C 90% Calm Calm -- 30.04 in1017.3 mb 0.01 in0.3 mm 0.12 in3.0 mm 0.01 in0.3 mm
08:00 AM 51.9°F11.1°C 49.1°F9.5°C 90% Calm Calm -- 30.04 in1017.3 mb 0.01 in0.3 mm 0.00 in0.0 mm 0.01 in0.3 mm
08:05 AM 52.1°F11.2°C 49.3°F9.6°C 90% Calm Calm -- 30.04 in1017.3 mb 0.01 in0.3 mm 0.00 in0.0 mm 0.01 in0.3 mm
08:10 AM 52.1°F11.2°C 49.3°F9.6°C 90% Calm Calm -- 30.04 in1017.3 mb 0.01 in0.3 mm 0.00 in0.0 mm 0.01 in0.3 mm
08:15 AM 52.1°F11.2°C 49.3°F9.6°C 90% Calm Calm -- 30.04 in1017.3 mb 0.02 in0.5 mm 0.12 in3.0 mm 0.02 in0.5 mm
08:20 AM 52.1°F11.2°C 49.3°F9.6°C 90% Calm Calm -- 30.04 in1017.3 mb 0.02 in0.5 mm 0.00 in0.0 mm 0.02 in0.5 mm
08:25 AM 52.2°F11.2°C 49.4°F9.7°C 90% Calm Calm 1.0 mph1.6 kmh 30.04 in1017.3 mb 0.02 in0.5 mm 0.00 in0.0 mm 0.02 in0.5 mm
08:30 AM 52.2°F11.2°C 49.4°F9.7°C 90% Calm Calm 1.0 mph1.6 kmh 30.05 in1017.6 mb 0.02 in0.5 mm 0.00 in0.0 mm 0.02 in0.5 mm
08:35 AM 52.3°F11.3°C 49.8°F9.9°C 91% Calm Calm -- 30.05 in1017.6 mb 0.02 in0.5 mm 0.00 in0.0 mm 0.02 in0.5 mm
08:40 AM 52.4°F11.3°C 49.8°F9.9°C 91% Calm Calm -- 30.05 in1017.6 mb 0.02 in0.5 mm 0.00 in0.0 mm 0.02 in0.5 mm
08:45 AM 52.4°F11.3°C 49.8°F9.9°C 91% Calm Calm -- 30.06 in1017.9 mb 0.02 in0.5 mm 0.00 in0.0 mm 0.02 in0.5 mm
08:50 AM 52.5°F11.4°C 49.9°F9.9°C 91% Calm Calm -- 30.06 in1017.9 mb 0.02 in0.5 mm 0.00 in0.0 mm 0.02 in0.5 mm
08:55 AM 52.6°F11.4°C 50.0°F10.0°C 91% Calm Calm 1.0 mph1.6 kmh 30.06 in1017.9 mb 0.02 in0.5 mm 0.00 in0.0 mm 0.02 in0.5 mm
09:00 AM 52.5°F11.4°C 49.9°F9.9°C 91% Calm Calm 1.0 mph1.6 kmh 30.06 in1017.9 mb 0.02 in0.5 mm 0.00 in0.0 mm 0.02 in0.5 mm
09:05 AM 52.5°F11.4°C 49.9°F9.9°C 91% Calm Calm -- 30.06 in1017.9 mb 0.02 in0.5 mm 0.00 in0.0 mm 0.02 in0.5 mm
09:10 AM 52.7°F11.5°C 50.1°F10.1°C 91% Calm Calm -- 30.06 in1017.9 mb 0.02 in0.5 mm 0.00 in0.0 mm 0.03 in0.8 mm
09:15 AM 52.7°F11.5°C 50.1°F10.1°C 91% Calm Calm -- 30.06 in1017.9 mb 0.02 in0.5 mm 0.00 in0.0 mm 0.03 in0.8 mm
09:20 AM 52.7°F11.5°C 49.8°F9.9°C 90% Calm Calm -- 30.06 in1017.9 mb 0.02 in0.5 mm 0.00 in0.0 mm 0.03 in0.8 mm
09:25 AM 52.6°F11.4°C 50.0°F10.0°C 91% Calm Calm -- 30.06 in1017.9 mb 0.02 in0.5 mm 0.00 in0.0 mm 0.04 in1.0 mm
09:30 AM 52.6°F11.4°C 50.0°F10.0°C 91% Calm Calm -- 30.05 in1017.6 mb 0.02 in0.5 mm 0.00 in0.0 mm 0.04 in1.0 mm
09:35 AM 52.6°F11.4°C 50.0°F10.0°C 91% Calm Calm -- 30.05 in1017.6 mb 0.02 in0.5 mm 0.00 in0.0 mm 0.04 in1.0 mm
09:40 AM 52.7°F11.5°C 50.1°F10.1°C 91% Calm Calm -- 30.05 in1017.6 mb 0.02 in0.5 mm 0.00 in0.0 mm 0.04 in1.0 mm
09:45 AM 52.8°F11.6°C 50.2°F10.1°C 91% Calm Calm -- 30.06 in1017.9 mb 0.02 in0.5 mm 0.00 in0.0 mm 0.04 in1.0 mm
09:50 AM 53.2°F11.8°C 50.6°F10.3°C 91% Calm Calm -- 30.06 in1017.9 mb 0.02 in0.5 mm 0.00 in0.0 mm 0.04 in1.0 mm
09:55 AM 53.4°F11.9°C 50.8°F10.4°C 91% Calm Calm -- 30.06 in1017.9 mb 0.02 in0.5 mm 0.00 in0.0 mm 0.04 in1.0 mm
10:00 AM 53.5°F11.9°C 50.9°F10.5°C 91% Calm Calm -- 30.06 in1017.9 mb 0.02 in0.5 mm 0.00 in0.0 mm 0.04 in1.0 mm
10:05 AM 53.5°F11.9°C 50.9°F10.5°C 91% Calm Calm 1.0 mph1.6 kmh 30.06 in1017.9 mb 0.02 in0.5 mm 0.00 in0.0 mm 0.04 in1.0 mm
10:10 AM 53.7°F12.1°C 51.1°F10.6°C 91% Calm Calm 1.0 mph1.6 kmh 30.06 in1017.9 mb 0.01 in0.3 mm 0.00 in0.0 mm 0.04 in1.0 mm
10:15 AM 53.8°F12.1°C 51.2°F10.7°C 91% Calm Calm -- 30.06 in1017.9 mb 0.01 in0.3 mm 0.00 in0.0 mm 0.04 in1.0 mm
10:20 AM 53.9°F12.2°C 51.3°F10.7°C 91% Calm Calm -- 30.06 in1017.9 mb 0.01 in0.3 mm 0.00 in0.0 mm 0.04 in1.0 mm
10:25 AM 54.0°F12.2°C 51.1°F10.6°C 90% Calm Calm -- 30.06 in1017.9 mb 0.00 in0.0 mm 0.00 in0.0 mm 0.04 in1.0 mm
10:30 AM 54.1°F12.3°C 51.2°F10.7°C 90% Calm Calm -- 30.07 in1018.3 mb 0.00 in0.0 mm 0.00 in0.0 mm 0.04 in1.0 mm
10:35 AM 54.1°F12.3°C 51.2°F10.7°C 90% Calm Calm -- 30.07 in1018.3 mb 0.00 in0.0 mm 0.00 in0.0 mm 0.04 in1.0 mm
10:40 AM 54.2°F12.3°C 51.3°F10.7°C 90% Calm Calm -- 30.07 in1018.3 mb 0.00 in0.0 mm 0.00 in0.0 mm 0.04 in1.0 mm
10:45 AM 54.4°F12.4°C 51.5°F10.8°C 90% Calm Calm -- 30.07 in1018.3 mb 0.00 in0.0 mm 0.00 in0.0 mm 0.04 in1.0 mm
10:50 AM 54.5°F12.5°C 51.6°F10.9°C 90% Calm Calm -- 30.07 in1018.3 mb 0.00 in0.0 mm 0.00 in0.0 mm 0.04 in1.0 mm
10:55 AM 54.6°F12.6°C 51.7°F10.9°C 90% 0.2 mph S0.3 kmh S 2.0 mph3.2 kmh 30.07 in1018.3 mb 0.00 in0.0 mm 0.00 in0.0 mm 0.04 in1.0 mm
11:00 AM 54.7°F12.6°C 51.8°F11.0°C 90% Calm Calm 2.0 mph3.2 kmh 30.07 in1018.3 mb 0.00 in0.0 mm 0.00 in0.0 mm 0.04 in1.0 mm
11:05 AM 54.7°F12.6°C 51.8°F11.0°C 90% 0.1 mph S0.2 kmh S 1.0 mph1.6 kmh 30.07 in1018.3 mb 0.00 in0.0 mm 0.00 in0.0 mm 0.04 in1.0 mm
11:10 AM 54.9°F12.7°C 52.0°F11.1°C 90% Calm Calm 1.0 mph1.6 kmh 30.07 in1018.3 mb 0.00 in0.0 mm 0.00 in0.0 mm 0.04 in1.0 mm
11:15 AM 55.0°F12.8°C 51.8°F11.0°C 89% Calm Calm -- 30.07 in1018.3 mb 0.00 in0.0 mm 0.00 in0.0 mm 0.04 in1.0 mm
11:20 AM 55.0°F12.8°C 51.8°F11.0°C 89% Calm Calm -- 30.07 in1018.3 mb 0.00 in0.0 mm 0.00 in0.0 mm 0.04 in1.0 mm
11:25 AM 55.0°F12.8°C 51.8°F11.0°C 89% Calm Calm -- 30.07 in1018.3 mb 0.00 in0.0 mm 0.00 in0.0 mm 0.04 in1.0 mm
11:30 AM 55.0°F12.8°C 51.8°F11.0°C 89% 0.1 mph S0.2 kmh S 2.0 mph3.2 kmh 30.07 in1018.3 mb 0.00 in0.0 mm 0.00 in0.0 mm 0.04 in1.0 mm
11:35 AM 55.3°F12.9°C 52.1°F11.2°C 89% Calm Calm 2.0 mph3.2 kmh 30.07 in1018.3 mb 0.00 in0.0 mm 0.00 in0.0 mm 0.04 in1.0 mm
11:40 AM 55.3°F12.9°C 52.1°F11.2°C 89% 0.3 mph S0.5 kmh S 2.0 mph3.2 kmh 30.07 in1018.3 mb 0.00 in0.0 mm 0.00 in0.0 mm 0.04 in1.0 mm
11:45 AM 55.4°F13.0°C 52.2°F11.2°C 89% Calm Calm 2.0 mph3.2 kmh 30.07 in1018.3 mb 0.00 in0.0 mm 0.00 in0.0 mm 0.04 in1.0 mm
11:50 AM 55.3°F12.9°C 51.8°F11.0°C 88% Calm Calm -- 30.07 in1018.3 mb 0.00 in0.0 mm 0.00 in0.0 mm 0.04 in1.0 mm
11:55 AM 55.6°F13.1°C 52.1°F11.2°C 88% Calm Calm -- 30.07 in1018.3 mb 0.00 in0.0 mm 0.00 in0.0 mm 0.04 in1.0 mm
12:00 PM 55.8°F13.2°C 52.3°F11.3°C 88% Calm Calm -- 30.07 in1018.3 mb 0.00 in0.0 mm 0.00 in0.0 mm 0.04 in1.0 mm
12:05 PM 55.9°F13.3°C 52.4°F11.3°C 88% Calm Calm -- 30.07 in1018.3 mb 0.00 in0.0 mm 0.00 in0.0 mm 0.04 in1.0 mm
12:10 PM 56.2°F13.4°C 52.4°F11.3°C 87% Calm Calm -- 30.07 in1018.3 mb 0.00 in0.0 mm 0.00 in0.0 mm 0.04 in1.0 mm
12:15 PM 56.4°F13.6°C 52.6°F11.4°C 87% Calm Calm -- 30.07 in1018.3 mb 0.00 in0.0 mm 0.00 in0.0 mm 0.04 in1.0 mm
12:20 PM 56.5°F13.6°C 52.7°F11.5°C 87% Calm Calm -- 30.07 in1018.3 mb 0.00 in0.0 mm 0.00 in0.0 mm 0.04 in1.0 mm
12:25 PM 56.7°F13.7°C 52.6°F11.4°C 86% Calm Calm -- 30.07 in1018.3 mb 0.00 in0.0 mm 0.00 in0.0 mm 0.04 in1.0 mm
12:30 PM 56.9°F13.8°C 52.8°F11.6°C 86% Calm Calm -- 30.06 in1017.9 mb 0.00 in0.0 mm 0.00 in0.0 mm 0.04 in1.0 mm
12:35 PM 56.9°F13.8°C 52.4°F11.3°C 85% Calm Calm -- 30.06 in1017.9 mb 0.00 in0.0 mm 0.00 in0.0 mm 0.04 in1.0 mm
12:40 PM 57.0°F13.9°C 52.5°F11.4°C 85% Calm Calm -- 30.06 in1017.9 mb 0.00 in0.0 mm 0.00 in0.0 mm 0.04 in1.0 mm
12:45 PM 57.4°F14.1°C 52.9°F11.6°C 85% Calm Calm 1.0 mph1.6 kmh 30.06 in1017.9 mb 0.00 in0.0 mm 0.00 in0.0 mm 0.04 in1.0 mm
12:50 PM 57.3°F14.1°C 52.5°F11.4°C 84% Calm Calm 1.0 mph1.6 kmh 30.06 in1017.9 mb 0.00 in0.0 mm 0.00 in0.0 mm 0.04 in1.0 mm
12:55 PM 57.6°F14.2°C 53.1°F11.7°C 85% 0.6 mph WSW1.0 kmh WSW 3.0 mph4.8 kmh 30.06 in1017.9 mb 0.00 in0.0 mm 0.00 in0.0 mm 0.04 in1.0 mm
01:00 PM 58.2°F14.6°C 53.7°F12.1°C 85% 0.4 mph WSW0.6 kmh WSW 3.0 mph4.8 kmh 30.06 in1017.9 mb 0.00 in0.0 mm 0.00 in0.0 mm 0.04 in1.0 mm
01:05 PM 58.4°F14.7°C 53.3°F11.8°C 83% 1.6 mph W2.6 kmh W 3.0 mph4.8 kmh 30.06 in1017.9 mb 0.00 in0.0 mm 0.00 in0.0 mm 0.04 in1.0 mm
01:10 PM 58.7°F14.8°C 53.5°F11.9°C 83% 0.2 mph SW0.3 kmh SW 3.0 mph4.8 kmh 30.06 in1017.9 mb 0.00 in0.0 mm 0.00 in0.0 mm 0.04 in1.0 mm
01:15 PM 59.0°F15.0°C 53.5°F11.9°C 82% Calm Calm 1.0 mph1.6 kmh 30.05 in1017.6 mb 0.00 in0.0 mm 0.00 in0.0 mm 0.04 in1.0 mm
01:20 PM 59.4°F15.2°C 53.6°F12.0°C 81% Calm Calm -- 30.05 in1017.6 mb 0.00 in0.0 mm 0.00 in0.0 mm 0.04 in1.0 mm
01:25 PM 59.6°F15.3°C 53.4°F11.9°C 80% Calm Calm -- 30.05 in1017.6 mb 0.00 in0.0 mm 0.00 in0.0 mm 0.04 in1.0 mm
01:30 PM 59.6°F15.3°C 53.4°F11.9°C 80% 0.2 mph NNW0.3 kmh NNW 2.0 mph3.2 kmh 30.04 in1017.3 mb 0.00 in0.0 mm 0.00 in0.0 mm 0.04 in1.0 mm
01:35 PM 60.1°F15.6°C 53.9°F12.2°C 80% Calm Calm 2.0 mph3.2 kmh 30.04 in1017.3 mb 0.00 in0.0 mm 0.00 in0.0 mm 0.04 in1.0 mm
01:40 PM 60.0°F15.6°C 53.1°F11.7°C 78% 0.5 mph WNW0.8 kmh WNW 2.0 mph3.2 kmh 30.04 in1017.3 mb 0.00 in0.0 mm 0.00 in0.0 mm 0.04 in1.0 mm
01:45 PM 60.3°F15.7°C 53.8°F12.1°C 79% Calm Calm 2.0 mph3.2 kmh 30.04 in1017.3 mb 0.00 in0.0 mm 0.00 in0.0 mm 0.04 in1.0 mm
01:50 PM 60.2°F15.7°C 53.7°F12.1°C 79% Calm Calm 1.0 mph1.6 kmh 30.04 in1017.3 mb 0.00 in0.0 mm 0.00 in0.0 mm 0.04 in1.0 mm
01:55 PM 60.3°F15.7°C 53.8°F12.1°C 79% Calm Calm -- 30.04 in1017.3 mb 0.00 in0.0 mm 0.00 in0.0 mm 0.04 in1.0 mm
02:00 PM 60.2°F15.7°C 53.0°F11.7°C 77% Calm Calm -- 30.03 in1016.9 mb 0.00 in0.0 mm 0.00 in0.0 mm 0.04 in1.0 mm
02:05 PM 60.3°F15.7°C 53.4°F11.9°C 78% Calm Calm -- 30.03 in1016.9 mb 0.00 in0.0 mm 0.00 in0.0 mm 0.04 in1.0 mm
02:10 PM 60.2°F15.7°C 53.3°F11.8°C 78% Calm Calm -- 30.03 in1016.9 mb 0.01 in0.3 mm 0.12 in3.0 mm 0.05 in1.3 mm
02:15 PM 60.2°F15.7°C 53.3°F11.8°C 78% Calm Calm -- 30.03 in1016.9 mb 0.01 in0.3 mm 0.00 in0.0 mm 0.05 in1.3 mm
02:20 PM 60.8°F16.0°C 54.2°F12.3°C 79% 0.1 mph SSW0.2 kmh SSW 1.0 mph1.6 kmh 30.03 in1016.9 mb 0.01 in0.3 mm 0.00 in0.0 mm 0.05 in1.3 mm
02:25 PM 60.9°F16.1°C 53.6°F12.0°C 77% 0.1 mph SSW0.2 kmh SSW 2.0 mph3.2 kmh 30.03 in1016.9 mb 0.01 in0.3 mm 0.00 in0.0 mm 0.05 in1.3 mm
02:30 PM 60.7°F15.9°C 53.4°F11.9°C 77% Calm Calm 2.0 mph3.2 kmh 30.02 in1016.6 mb 0.01 in0.3 mm 0.00 in0.0 mm 0.05 in1.3 mm
02:35 PM 61.1°F16.2°C 54.2°F12.3°C 78% 0.2 mph SSW0.3 kmh SSW 1.0 mph1.6 kmh 30.02 in1016.6 mb 0.01 in0.3 mm 0.00 in0.0 mm 0.05 in1.3 mm
02:40 PM 61.8°F16.6°C 54.5°F12.5°C 77% Calm Calm 1.0 mph1.6 kmh 30.02 in1016.6 mb 0.01 in0.3 mm 0.00 in0.0 mm 0.05 in1.3 mm
02:45 PM 62.1°F16.7°C 54.1°F12.3°C 75% 0.5 mph SSW0.8 kmh SSW 2.0 mph3.2 kmh 30.01 in1016.3 mb 0.01 in0.3 mm 0.00 in0.0 mm 0.05 in1.3 mm
02:50 PM 63.1°F17.3°C 54.7°F12.6°C 74% 0.3 mph SSW0.5 kmh SSW 2.0 mph3.2 kmh 30.01 in1016.3 mb 0.01 in0.3 mm 0.00 in0.0 mm 0.05 in1.3 mm
02:55 PM 63.5°F17.5°C 54.3°F12.4°C 72% 0.2 mph SSW0.3 kmh SSW 2.0 mph3.2 kmh 30.01 in1016.3 mb 0.01 in0.3 mm 0.00 in0.0 mm 0.05 in1.3 mm
03:00 PM 62.3°F16.8°C 53.2°F11.8°C 72% Calm Calm 1.0 mph1.6 kmh 30.01 in1016.3 mb 0.01 in0.3 mm 0.00 in0.0 mm 0.05 in1.3 mm
03:05 PM 61.9°F16.6°C 53.5°F11.9°C 74% Calm Calm -- 30.01 in1016.3 mb 0.01 in0.3 mm 0.00 in0.0 mm 0.05 in1.3 mm
03:10 PM 61.7°F16.5°C 53.3°F11.8°C 74% Calm Calm -- 30.01 in1016.3 mb 0.00 in0.0 mm 0.00 in0.0 mm 0.05 in1.3 mm
03:15 PM 61.6°F16.4°C 53.2°F11.8°C 74% Calm Calm -- 30.01 in1016.3 mb 0.00 in0.0 mm 0.00 in0.0 mm 0.05 in1.3 mm
03:20 PM 61.5°F16.4°C 53.1°F11.7°C 74% Calm Calm -- 30.01 in1016.3 mb 0.00 in0.0 mm 0.00 in0.0 mm 0.05 in1.3 mm
03:25 PM 61.9°F16.6°C 53.5°F11.9°C 74% Calm Calm -- 30.01 in1016.3 mb 0.00 in0.0 mm 0.00 in0.0 mm 0.05 in1.3 mm
03:30 PM 62.8°F17.1°C 54.0°F12.2°C 73% Calm Calm -- 30.01 in1016.3 mb 0.00 in0.0 mm 0.00 in0.0 mm 0.05 in1.3 mm
03:35 PM 63.7°F17.6°C 54.1°F12.3°C 71% Calm Calm -- 30.01 in1016.3 mb 0.00 in0.0 mm 0.00 in0.0 mm 0.05 in1.3 mm
03:40 PM 63.8°F17.7°C 54.6°F12.6°C 72% Calm Calm -- 30.01 in1016.3 mb 0.00 in0.0 mm 0.00 in0.0 mm 0.05 in1.3 mm
03:45 PM 64.1°F17.8°C 54.1°F12.3°C 70% Calm Calm -- 30.01 in1016.3 mb 0.00 in0.0 mm 0.00 in0.0 mm 0.05 in1.3 mm
03:50 PM 63.4°F17.4°C 53.8°F12.1°C 71% Calm Calm -- 30.01 in1016.3 mb 0.00 in0.0 mm 0.00 in0.0 mm 0.05 in1.3 mm
03:55 PM 63.0°F17.2°C 53.8°F12.1°C 72% Calm Calm -- 30.01 in1016.3 mb 0.00 in0.0 mm 0.00 in0.0 mm 0.05 in1.3 mm
04:00 PM 62.9°F17.2°C 54.1°F12.3°C 73% Calm Calm -- 30.00 in1015.9 mb 0.00 in0.0 mm 0.00 in0.0 mm 0.05 in1.3 mm
04:05 PM 63.2°F17.3°C 54.4°F12.4°C 73% Calm Calm -- 30.00 in1015.9 mb 0.00 in0.0 mm 0.00 in0.0 mm 0.05 in1.3 mm
04:10 PM 63.8°F17.7°C 55.0°F12.8°C 73% Calm Calm -- 30.00 in1015.9 mb 0.00 in0.0 mm 0.00 in0.0 mm 0.05 in1.3 mm
04:15 PM 63.6°F17.6°C 54.0°F12.2°C 71% Calm Calm -- 30.00 in1015.9 mb 0.00 in0.0 mm 0.00 in0.0 mm 0.05 in1.3 mm
04:20 PM 64.0°F17.8°C 54.4°F12.4°C 71% Calm Calm -- 30.00 in1015.9 mb 0.00 in0.0 mm 0.00 in0.0 mm 0.05 in1.3 mm
04:25 PM 64.1°F17.8°C 54.5°F12.5°C 71% Calm Calm -- 30.00 in1015.9 mb 0.00 in0.0 mm 0.00 in0.0 mm 0.05 in1.3 mm
04:30 PM 64.1°F17.8°C 53.7°F12.1°C 69% Calm Calm -- 30.00 in1015.9 mb 0.00 in0.0 mm 0.00 in0.0 mm 0.05 in1.3 mm
04:35 PM 63.7°F17.6°C 54.1°F12.3°C 71% Calm Calm -- 30.00 in1015.9 mb 0.00 in0.0 mm 0.00 in0.0 mm 0.05 in1.3 mm
04:40 PM 64.1°F17.8°C 54.5°F12.5°C 71% Calm Calm -- 30.00 in1015.9 mb 0.00 in0.0 mm 0.00 in0.0 mm 0.05 in1.3 mm
04:45 PM 64.2°F17.9°C 54.6°F12.6°C 71% Calm Calm -- 30.00 in1015.9 mb 0.00 in0.0 mm 0.00 in0.0 mm 0.05 in1.3 mm
04:50 PM 64.4°F18.0°C 54.8°F12.7°C 71% Calm Calm -- 30.00 in1015.9 mb 0.00 in0.0 mm 0.00 in0.0 mm 0.05 in1.3 mm
04:55 PM 64.0°F17.8°C 54.0°F12.2°C 70% Calm Calm -- 30.00 in1015.9 mb 0.00 in0.0 mm 0.00 in0.0 mm 0.05 in1.3 mm
05:00 PM 63.8°F17.7°C 53.8°F12.1°C 70% Calm Calm -- 30.00 in1015.9 mb 0.00 in0.0 mm 0.00 in0.0 mm 0.05 in1.3 mm
05:05 PM 63.6°F17.6°C 53.6°F12.0°C 70% Calm Calm -- 30.00 in1015.9 mb 0.00 in0.0 mm 0.00 in0.0 mm 0.05 in1.3 mm
05:10 PM 63.9°F17.7°C 54.3°F12.4°C 71% Calm Calm -- 30.00 in1015.9 mb 0.00 in0.0 mm 0.00 in0.0 mm 0.05 in1.3 mm
05:15 PM 64.0°F17.8°C 53.6°F12.0°C 69% Calm Calm -- 30.00 in1015.9 mb 0.00 in0.0 mm 0.00 in0.0 mm 0.05 in1.3 mm
05:20 PM 63.9°F17.7°C 53.9°F12.2°C 70% Calm Calm -- 30.00 in1015.9 mb 0.00 in0.0 mm 0.00 in0.0 mm 0.05 in1.3 mm
05:25 PM 63.7°F17.6°C 53.7°F12.1°C 70% Calm Calm -- 30.00 in1015.9 mb 0.00 in0.0 mm 0.00 in0.0 mm 0.05 in1.3 mm
05:30 PM 63.6°F17.6°C 54.0°F12.2°C 71% Calm Calm -- 30.01 in1016.3 mb 0.00 in0.0 mm 0.00 in0.0 mm 0.05 in1.3 mm
05:35 PM 63.0°F17.2°C 53.8°F12.1°C 72% Calm Calm -- 30.01 in1016.3 mb 0.00 in0.0 mm 0.00 in0.0 mm 0.05 in1.3 mm
05:40 PM 62.4°F16.9°C 54.0°F12.2°C 74% Calm Calm -- 30.01 in1016.3 mb 0.00 in0.0 mm 0.00 in0.0 mm 0.05 in1.3 mm
05:45 PM 62.0°F16.7°C 54.0°F12.2°C 75% Calm Calm -- 30.01 in1016.3 mb 0.00 in0.0 mm 0.00 in0.0 mm 0.05 in1.3 mm
05:50 PM 61.3°F16.3°C 53.3°F11.8°C 75% Calm Calm -- 30.01 in1016.3 mb 0.00 in0.0 mm 0.00 in0.0 mm 0.05 in1.3 mm
05:55 PM 60.6°F15.9°C 53.0°F11.7°C 76% Calm Calm -- 30.01 in1016.3 mb 0.00 in0.0 mm 0.00 in0.0 mm 0.05 in1.3 mm
06:00 PM 60.0°F15.6°C 52.8°F11.6°C 77% Calm Calm -- 30.01 in1016.3 mb 0.00 in0.0 mm 0.00 in0.0 mm 0.05 in1.3 mm
06:05 PM 59.4°F15.2°C 52.2°F11.2°C 77% Calm Calm -- 30.01 in1016.3 mb 0.00 in0.0 mm 0.00 in0.0 mm 0.05 in1.3 mm
06:10 PM 59.0°F15.0°C 52.1°F11.2°C 78% Calm Calm -- 30.01 in1016.3 mb 0.00 in0.0 mm 0.00 in0.0 mm 0.05 in1.3 mm
06:15 PM 58.6°F14.8°C 52.1°F11.2°C 79% Calm Calm -- 30.01 in1016.3 mb 0.00 in0.0 mm 0.00 in0.0 mm 0.05 in1.3 mm
06:20 PM 58.2°F14.6°C 51.7°F10.9°C 79% Calm Calm -- 30.01 in1016.3 mb 0.00 in0.0 mm 0.00 in0.0 mm 0.05 in1.3 mm
06:25 PM 57.6°F14.2°C 51.5°F10.8°C 80% Calm Calm -- 30.01 in1016.3 mb 0.00 in0.0 mm 0.00 in0.0 mm 0.05 in1.3 mm
06:30 PM 57.1°F13.9°C 51.0°F10.6°C 80% Calm Calm -- 30.02 in1016.6 mb 0.00 in0.0 mm 0.00 in0.0 mm 0.05 in1.3 mm
06:35 PM 56.6°F13.7°C 50.8°F10.4°C 81% Calm Calm -- 30.02 in1016.6 mb 0.00 in0.0 mm 0.00 in0.0 mm 0.05 in1.3 mm
06:40 PM 56.2°F13.4°C 50.8°F10.4°C 82% Calm Calm -- 30.02 in1016.6 mb 0.00 in0.0 mm 0.00 in0.0 mm 0.05 in1.3 mm
06:45 PM 56.0°F13.3°C 50.6°F10.3°C 82% Calm Calm -- 30.02 in1016.6 mb 0.00 in0.0 mm 0.00 in0.0 mm 0.05 in1.3 mm
06:50 PM 55.8°F13.2°C 50.7°F10.4°C 83% Calm Calm -- 30.02 in1016.6 mb 0.00 in0.0 mm 0.00 in0.0 mm 0.05 in1.3 mm
06:55 PM 55.5°F13.1°C 50.4°F10.2°C 83% Calm Calm -- 30.02 in1016.6 mb 0.00 in0.0 mm 0.00 in0.0 mm 0.05 in1.3 mm
07:00 PM 55.2°F12.9°C 50.4°F10.2°C 84% Calm Calm -- 30.03 in1016.9 mb 0.00 in0.0 mm 0.00 in0.0 mm 0.05 in1.3 mm
07:05 PM 54.9°F12.7°C 50.2°F10.1°C 84% Calm Calm -- 30.03 in1016.9 mb 0.00 in0.0 mm 0.00 in0.0 mm 0.05 in1.3 mm
07:10 PM 54.6°F12.6°C 49.9°F9.9°C 84% Calm Calm -- 30.03 in1016.9 mb 0.00 in0.0 mm 0.00 in0.0 mm 0.05 in1.3 mm
07:15 PM 54.4°F12.4°C 50.0°F10.0°C 85% Calm Calm -- 30.03 in1016.9 mb 0.00 in0.0 mm 0.00 in0.0 mm 0.05 in1.3 mm
07:20 PM 54.2°F12.3°C 49.8°F9.9°C 85% Calm Calm -- 30.03 in1016.9 mb 0.00 in0.0 mm 0.00 in0.0 mm 0.05 in1.3 mm
07:25 PM 54.0°F12.2°C 49.6°F9.8°C 85% Calm Calm -- 30.03 in1016.9 mb 0.00 in0.0 mm 0.00 in0.0 mm 0.05 in1.3 mm
07:30 PM 53.9°F12.2°C 49.8°F9.9°C 86% Calm Calm -- 30.03 in1016.9 mb 0.00 in0.0 mm 0.00 in0.0 mm 0.05 in1.3 mm
07:35 PM 53.6°F12.0°C 49.5°F9.7°C 86% Calm Calm -- 30.03 in1016.9 mb 0.00 in0.0 mm 0.00 in0.0 mm 0.05 in1.3 mm
07:40 PM 53.4°F11.9°C 49.3°F9.6°C 86% Calm Calm -- 30.03 in1016.9 mb 0.00 in0.0 mm 0.00 in0.0 mm 0.05 in1.3 mm
07:45 PM 53.2°F11.8°C 49.4°F9.7°C 87% Calm Calm -- 30.04 in1017.3 mb 0.00 in0.0 mm 0.00 in0.0 mm 0.05 in1.3 mm
07:50 PM 52.9°F11.6°C 49.1°F9.5°C 87% Calm Calm -- 30.04 in1017.3 mb 0.00 in0.0 mm 0.00 in0.0 mm 0.05 in1.3 mm
07:55 PM 53.0°F11.7°C 49.2°F9.6°C 87% Calm Calm -- 30.04 in1017.3 mb 0.00 in0.0 mm 0.00 in0.0 mm 0.05 in1.3 mm
08:00 PM 52.9°F11.6°C 49.1°F9.5°C 87% Calm Calm -- 30.04 in1017.3 mb 0.00 in0.0 mm 0.00 in0.0 mm 0.05 in1.3 mm
08:05 PM 52.8°F11.6°C 49.0°F9.4°C 87% Calm Calm -- 30.04 in1017.3 mb 0.00 in0.0 mm 0.00 in0.0 mm 0.05 in1.3 mm
08:10 PM 52.7°F11.5°C 48.9°F9.4°C 87% Calm Calm -- 30.04 in1017.3 mb 0.00 in0.0 mm 0.00 in0.0 mm 0.05 in1.3 mm
08:15 PM 52.4°F11.3°C 48.6°F9.2°C 87% Calm Calm -- 30.05 in1017.6 mb 0.00 in0.0 mm 0.00 in0.0 mm 0.05 in1.3 mm
08:20 PM 51.9°F11.1°C 48.2°F9.0°C 87% Calm Calm -- 30.05 in1017.6 mb 0.00 in0.0 mm 0.00 in0.0 mm 0.05 in1.3 mm
08:25 PM 51.7°F10.9°C 48.3°F9.1°C 88% Calm Calm -- 30.05 in1017.6 mb 0.00 in0.0 mm 0.00 in0.0 mm 0.05 in1.3 mm
08:30 PM 51.6°F10.9°C 48.2°F9.0°C 88% Calm Calm -- 30.05 in1017.6 mb 0.00 in0.0 mm 0.00 in0.0 mm 0.05 in1.3 mm
08:35 PM 51.4°F10.8°C 48.0°F8.9°C 88% Calm Calm -- 30.05 in1017.6 mb 0.00 in0.0 mm 0.00 in0.0 mm 0.05 in1.3 mm
08:40 PM 51.3°F10.7°C 47.9°F8.8°C 88% Calm Calm -- 30.05 in1017.6 mb 0.00 in0.0 mm 0.00 in0.0 mm 0.05 in1.3 mm
08:45 PM 51.2°F10.7°C 47.8°F8.8°C 88% Calm Calm -- 30.05 in1017.6 mb 0.00 in0.0 mm 0.00 in0.0 mm 0.05 in1.3 mm
08:50 PM 51.1°F10.6°C 48.0°F8.9°C 89% Calm Calm -- 30.05 in1017.6 mb 0.00 in0.0 mm 0.00 in0.0 mm 0.05 in1.3 mm
08:55 PM 51.0°F10.6°C 47.9°F8.8°C 89% Calm Calm -- 30.05 in1017.6 mb 0.00 in0.0 mm 0.00 in0.0 mm 0.05 in1.3 mm
09:00 PM 50.7°F10.4°C 47.6°F8.7°C 89% Calm Calm -- 30.06 in1017.9 mb 0.00 in0.0 mm 0.00 in0.0 mm 0.05 in1.3 mm
09:05 PM 50.6°F10.3°C 47.5°F8.6°C 89% Calm Calm -- 30.06 in1017.9 mb 0.00 in0.0 mm 0.00 in0.0 mm 0.05 in1.3 mm
09:10 PM 50.6°F10.3°C 47.5°F8.6°C 89% Calm Calm -- 30.06 in1017.9 mb 0.00 in0.0 mm 0.00 in0.0 mm 0.05 in1.3 mm
09:15 PM 50.4°F10.2°C 47.3°F8.5°C 89% Calm Calm -- 30.06 in1017.9 mb 0.00 in0.0 mm 0.00 in0.0 mm 0.05 in1.3 mm
09:20 PM 50.3°F10.2°C 47.2°F8.4°C 89% Calm Calm -- 30.06 in1017.9 mb 0.00 in0.0 mm 0.00 in0.0 mm 0.05 in1.3 mm
09:25 PM 50.3°F10.2°C 47.2°F8.4°C 89% Calm Calm -- 30.06 in1017.9 mb 0.00 in0.0 mm 0.00 in0.0 mm 0.05 in1.3 mm
09:30 PM 50.2°F10.1°C 47.1°F8.4°C 89% Calm Calm -- 30.06 in1017.9 mb 0.00 in0.0 mm 0.00 in0.0 mm 0.05 in1.3 mm
09:35 PM 49.9°F9.9°C 47.1°F8.4°C 90% Calm Calm -- 30.06 in1017.9 mb 0.00 in0.0 mm 0.00 in0.0 mm 0.05 in1.3 mm
09:40 PM 49.8°F9.9°C 46.7°F8.2°C 89% Calm Calm -- 30.06 in1017.9 mb 0.00 in0.0 mm 0.00 in0.0 mm 0.05 in1.3 mm
09:45 PM 49.6°F9.8°C 46.8°F8.2°C 90% Calm Calm -- 30.06 in1017.9 mb 0.00 in0.0 mm 0.00 in0.0 mm 0.05 in1.3 mm
09:50 PM 49.5°F9.7°C 46.7°F8.2°C 90% Calm Calm -- 30.06 in1017.9 mb 0.00 in0.0 mm 0.00 in0.0 mm 0.05 in1.3 mm
09:55 PM 49.6°F9.8°C 46.8°F8.2°C 90% Calm Calm -- 30.06 in1017.9 mb 0.00 in0.0 mm 0.00 in0.0 mm 0.05 in1.3 mm
10:00 PM 49.7°F9.8°C 46.9°F8.3°C 90% Calm Calm -- 30.07 in1018.3 mb 0.00 in0.0 mm 0.00 in0.0 mm 0.05 in1.3 mm
10:05 PM 49.6°F9.8°C 46.8°F8.2°C 90% Calm Calm -- 30.07 in1018.3 mb 0.00 in0.0 mm 0.00 in0.0 mm 0.05 in1.3 mm
10:10 PM 49.7°F9.8°C 46.9°F8.3°C 90% Calm Calm 1.0 mph1.6 kmh 30.07 in1018.3 mb 0.00 in0.0 mm 0.00 in0.0 mm 0.05 in1.3 mm
10:15 PM 49.5°F9.7°C 46.7°F8.2°C 90% Calm Calm 1.0 mph1.6 kmh 30.07 in1018.3 mb 0.00 in0.0 mm 0.00 in0.0 mm 0.05 in1.3 mm
10:20 PM 49.2°F9.6°C 46.4°F8.0°C 90% Calm Calm -- 30.07 in1018.3 mb 0.00 in0.0 mm 0.00 in0.0 mm 0.05 in1.3 mm
10:25 PM 48.6°F9.2°C 45.8°F7.7°C 90% Calm Calm -- 30.07 in1018.3 mb 0.00 in0.0 mm 0.00 in0.0 mm 0.05 in1.3 mm
10:30 PM 48.2°F9.0°C 45.4°F7.4°C 90% Calm Calm -- 30.07 in1018.3 mb 0.00 in0.0 mm 0.00 in0.0 mm 0.05 in1.3 mm
10:35 PM 48.0°F8.9°C 45.2°F7.3°C 90% Calm Calm -- 30.07 in1018.3 mb 0.00 in0.0 mm 0.00 in0.0 mm 0.05 in1.3 mm
10:40 PM 48.0°F8.9°C 45.2°F7.3°C 90% Calm Calm -- 30.07 in1018.3 mb 0.00 in0.0 mm 0.00 in0.0 mm 0.05 in1.3 mm
10:45 PM 48.1°F8.9°C 45.3°F7.4°C 90% Calm Calm -- 30.07 in1018.3 mb 0.00 in0.0 mm 0.00 in0.0 mm 0.05 in1.3 mm
10:50 PM 48.2°F9.0°C 45.4°F7.4°C 90% Calm Calm -- 30.07 in1018.3 mb 0.00 in0.0 mm 0.00 in0.0 mm 0.05 in1.3 mm
10:55 PM 48.1°F8.9°C 45.3°F7.4°C 90% Calm Calm -- 30.07 in1018.3 mb 0.00 in0.0 mm 0.00 in0.0 mm 0.05 in1.3 mm
11:00 PM 48.1°F8.9°C 45.3°F7.4°C 90% Calm Calm -- 30.08 in1018.6 mb 0.00 in0.0 mm 0.00 in0.0 mm 0.05 in1.3 mm
11:05 PM 48.1°F8.9°C 45.6°F7.6°C 91% Calm Calm -- 30.08 in1018.6 mb 0.00 in0.0 mm 0.00 in0.0 mm 0.05 in1.3 mm
11:10 PM 47.8°F8.8°C 45.3°F7.4°C 91% Calm Calm -- 30.08 in1018.6 mb 0.00 in0.0 mm 0.00 in0.0 mm 0.05 in1.3 mm
11:15 PM 47.7°F8.7°C 44.9°F7.2°C 90% Calm Calm -- 30.08 in1018.6 mb 0.00 in0.0 mm 0.00 in0.0 mm 0.05 in1.3 mm
11:20 PM 47.6°F8.7°C 44.8°F7.1°C 90% Calm Calm -- 30.08 in1018.6 mb 0.00 in0.0 mm 0.00 in0.0 mm 0.05 in1.3 mm
11:25 PM 47.2°F8.4°C 44.7°F7.1°C 91% Calm Calm -- 30.08 in1018.6 mb 0.00 in0.0 mm 0.00 in0.0 mm 0.05 in1.3 mm
11:30 PM 47.4°F8.6°C 44.9°F7.2°C 91% Calm Calm -- 30.08 in1018.6 mb 0.00 in0.0 mm 0.00 in0.0 mm 0.05 in1.3 mm
11:35 PM 47.2°F8.4°C 44.7°F7.1°C 91% Calm Calm -- 30.08 in1018.6 mb 0.00 in0.0 mm 0.00 in0.0 mm 0.05 in1.3 mm
11:40 PM 47.2°F8.4°C 44.7°F7.1°C 91% Calm Calm -- 30.08 in1018.6 mb 0.00 in0.0 mm 0.00 in0.0 mm 0.05 in1.3 mm
11:45 PM 47.2°F8.4°C 44.7°F7.1°C 91% Calm Calm -- 30.09 in1019.0 mb 0.00 in0.0 mm 0.00 in0.0 mm 0.05 in1.3 mm
11:50 PM 47.4°F8.6°C 44.9°F7.2°C 91% Calm Calm -- 30.09 in1019.0 mb 0.00 in0.0 mm 0.00 in0.0 mm 0.05 in1.3 mm
11:55 PM 47.5°F8.6°C 45.0°F7.2°C 91% Calm Calm -- 30.09 in1019.0 mb 0.00 in0.0 mm 0.00 in0.0 mm 0.05 in1.3 mm